Aviation Digital Data Service (ADDS)

Output produced by METARs form (0036 UTC 26 June 2019)
found at http://aviationweather.gov/metar/data/
 
KHUM 252329Z 2600/2624 18006KT P6SM SCT027 
     FM260600 09004KT P6SM SCT130 
     FM261400 12005KT P6SM BKN200